Blue Galaxy — SWDA — position and weather

sailwx.info

Track history (hours):
 
Tides and Currents Weather Stations Pressure Air Temp Water Temp Dewpoint Dewpoint Depression Visibility Wind Speed Wind Dir Waves Ship Positions

Blue Galaxy

Last reported at 2015-Aug-28 21:33 UTC. Time now 2015-Aug-28 22:20 UTC.
Position N 37°15' E 023°50'.

Length 192 m; draft 6.7 m.

Type: Passenger vessel. MMSI: 239672000.

Date/timePositionNaut miles runAvg speedWind from/ knotsBaromVisibWave heightAir tempDewpointWater temp
2015-Aug-28 21:33N 37°15' E 023°50'2020.2
2015-Aug-28 20:33N 37°35' E 023°44'2019.7
2015-Aug-28 19:34N 37°53' E 023°37'4 3.5
2015-Aug-28 18:33N 37°57' E 023°38'0 0.0
2015-Aug-28 17:33N 37°57' E 023°38'0 0.3
2015-Aug-28 16:33N 37°57' E 023°38'1616.2
2015-Aug-28 15:33N 37°41' E 023°45'12 0.7
2015-Aug-27 21:08N 37°29' E 023°46'1220.4
2015-Aug-27 20:33N 37°41' E 023°41'1616.3
2015-Aug-27 19:33N 37°57' E 023°38'0 0.2
2015-Aug-27 18:33N 37°57' E 023°38'0 0.0
2015-Aug-27 17:33N 37°57' E 023°38'0 0.3
2015-Aug-27 16:33N 37°57' E 023°38'1717.2
2015-Aug-27 15:33N 37°40' E 023°46'9 0.5
2015-Aug-26 21:19N 37°31' E 023°45'1620.6
2015-Aug-26 20:33N 37°46' E 023°39'1111.2
2015-Aug-26 19:33N 37°57' E 023°38'0 0.0
2015-Aug-26 18:33N 37°57' E 023°38'0 0.0
2015-Aug-26 17:33N 37°57' E 023°38'0 0.5
2015-Aug-26 16:34N 37°56' E 023°38'1918.5
2015-Aug-26 15:33N 37°39' E 023°46'6 0.3
2015-Aug-25 20:33N 37°33' E 023°45'2020.1
2015-Aug-25 19:33N 37°52' E 023°37'5 4.7
2015-Aug-25 18:33N 37°57' E 023°38'0 0.0
2015-Aug-25 17:33N 37°57' E 023°38'0 0.0
2015-Aug-25 16:34N 37°57' E 023°38'0 0.0
2015-Aug-25 15:33N 37°57' E 023°38'0 0.0
2015-Aug-25 14:33N 37°57' E 023°38'0 0.0
2015-Aug-25 13:33N 37°57' E 023°38'0 0.0
2015-Aug-25 12:34N 37°57' E 023°38'0 0.0
2015-Aug-25 11:34N 37°57' E 023°38'0 0.0
2015-Aug-25 10:33N 37°57' E 023°38'0 0.0
2015-Aug-25 09:33N 37°57' E 023°38'0 0.0
2015-Aug-25 08:33N 37°57' E 023°38'0 0.0
2015-Aug-25 07:33N 37°57' E 023°38'0 0.0
2015-Aug-25 06:34N 37°57' E 023°38'0 0.0
2015-Aug-25 05:34N 37°57' E 023°38'0 0.0
2015-Aug-25 04:33N 37°57' E 023°38'0 0.0
2015-Aug-25 03:33N 37°57' E 023°38'8 7.5
2015-Aug-25 02:34N 37°50' E 023°41'18 0.6
2015-Aug-23 20:33N 37°32' E 023°45'2020.1
2015-Aug-23 19:33N 37°50' E 023°37'7 6.6
2015-Aug-23 18:34N 37°57' E 023°38'0 0.0
2015-Aug-23 17:34N 37°57' E 023°38'0 0.3
2015-Aug-23 16:34N 37°57' E 023°38'1414.4
2015-Aug-23 15:33N 37°43' E 023°44'12 0.6
2015-Aug-22 20:33N 37°31' E 023°45'2020.0
2015-Aug-22 19:33N 37°50' E 023°37'7 7.2
2015-Aug-22 18:34N 37°57' E 023°38'0 0.0
2015-Aug-22 17:33N 37°57' E 023°38'0 0.0
2015-Aug-22 16:34N 37°57' E 023°38'1514.5
2015-Aug-22 15:33N 37°43' E 023°43'9 0.5
2015-Aug-21 20:32N 37°34' E 023°44'1919.8
2015-Aug-21 19:33N 37°53' E 023°37'4 4.3
2015-Aug-21 18:33N 37°57' E 023°38'0 0.0
2015-Aug-21 17:33N 37°57' E 023°38'0 0.3
2015-Aug-21 16:33N 37°57' E 023°38'1414.4
2015-Aug-21 15:33N 37°43' E 023°43'13410.8
2015-Aug-21 03:05N 35°30' E 024°06'815.3
2015-Aug-21 02:33N 35°34' E 024°14'2120.8
2015-Aug-21 01:33N 35°55' E 024°09'2120.8
2015-Aug-21 00:33N 36°15' E 024°04'2520.5
2015-Aug-20 23:19N 36°40' E 023°58'2420.6
2015-Aug-20 22:09N 37°04' E 023°53'1219.8
2015-Aug-20 21:33N 37°15' E 023°50'1919.6
2015-Aug-20 20:34N 37°34' E 023°44'2019.9
2015-Aug-20 19:34N 37°53' E 023°36'4 3.9
2015-Aug-20 18:33N 37°57' E 023°38'0 0.0
2015-Aug-20 17:33N 37°57' E 023°38'0 0.0
2015-Aug-20 16:33N 37°57' E 023°38'1312.7
2015-Aug-20 15:33N 37°45' E 023°43'2322.7
2015-Aug-20 14:34N 37°22' E 023°48'2323.1
2015-Aug-20 13:33N 36°60' E 023°54'2222.2
2015-Aug-20 12:33N 36°38' E 023°59'2322.3
2015-Aug-20 11:32N 36°15' E 024°04'2122.0
2015-Aug-20 10:33N 35°54' E 024°08'2321.6
2015-Aug-20 09:31N 35°32' E 024°13'6 0.9
2015-Aug-20 02:33N 35°38' E 024°12'2120.8
2015-Aug-20 01:33N 35°58' E 024°07'2220.8
2015-Aug-20 00:29N 36°20' E 024°02'1920.5
2015-Aug-19 23:34N 36°39' E 023°59'2120.7
2015-Aug-19 22:33N 36°60' E 023°54'2019.6
2015-Aug-19 21:34N 37°19' E 023°48'2019.9
2015-Aug-19 20:34N 37°38' E 023°42'1918.6
2015-Aug-19 19:33N 37°56' E 023°37'1 1.3
2015-Aug-19 18:33N 37°57' E 023°38'0 0.0
2015-Aug-19 17:33N 37°57' E 023°38'0 0.0
2015-Aug-19 16:33N 37°57' E 023°38'1313.1
2015-Aug-19 15:33N 37°44' E 023°43'2222.5
2015-Aug-19 14:33N 37°22' E 023°48'2323.2
2015-Aug-19 13:33N 36°59' E 023°54'  
Track history (hours):
 
Tides and Currents Weather Stations Pressure Air Temp Water Temp Dewpoint Dewpoint Depression Visibility Wind Speed Wind Dir Waves Ship Positions

Blue Galaxy

Last reported at 2015-Aug-28 21:33 UTC. Time now 2015-Aug-28 22:20 UTC.
Position N 37°15' E 023°50'.

Length 192 m; draft 6.7 m.

Type: Passenger vessel. MMSI: 239672000.

Date/timePositionNaut miles runAvg speedWind from/ knotsBaromVisibWave heightAir tempDewpointWater temp
2015-Aug-28 21:33N 37°15' E 023°50'2020.2
2015-Aug-28 20:33N 37°35' E 023°44'2019.7
2015-Aug-28 19:34N 37°53' E 023°37'4 3.5
2015-Aug-28 18:33N 37°57' E 023°38'0 0.0
2015-Aug-28 17:33N 37°57' E 023°38'0 0.3
2015-Aug-28 16:33N 37°57' E 023°38'1616.2
2015-Aug-28 15:33N 37°41' E 023°45'12 0.7
2015-Aug-27 21:08N 37°29' E 023°46'1220.4
2015-Aug-27 20:33N 37°41' E 023°41'1616.3
2015-Aug-27 19:33N 37°57' E 023°38'0 0.2
2015-Aug-27 18:33N 37°57' E 023°38'0 0.0
2015-Aug-27 17:33N 37°57' E 023°38'0 0.3
2015-Aug-27 16:33N 37°57' E 023°38'1717.2
2015-Aug-27 15:33N 37°40' E 023°46'9 0.5
2015-Aug-26 21:19N 37°31' E 023°45'1620.6
2015-Aug-26 20:33N 37°46' E 023°39'1111.2
2015-Aug-26 19:33N 37°57' E 023°38'0 0.0
2015-Aug-26 18:33N 37°57' E 023°38'0 0.0
2015-Aug-26 17:33N 37°57' E 023°38'0 0.5
2015-Aug-26 16:34N 37°56' E 023°38'1918.5
2015-Aug-26 15:33N 37°39' E 023°46'6 0.3
2015-Aug-25 20:33N 37°33' E 023°45'2020.1
2015-Aug-25 19:33N 37°52' E 023°37'5 4.7
2015-Aug-25 18:33N 37°57' E 023°38'0 0.0
2015-Aug-25 17:33N 37°57' E 023°38'0 0.0
2015-Aug-25 16:34N 37°57' E 023°38'0 0.0
2015-Aug-25 15:33N 37°57' E 023°38'0 0.0
2015-Aug-25 14:33N 37°57' E 023°38'0 0.0
2015-Aug-25 13:33N 37°57' E 023°38'0 0.0
2015-Aug-25 12:34N 37°57' E 023°38'0 0.0
2015-Aug-25 11:34N 37°57' E 023°38'0 0.0
2015-Aug-25 10:33N 37°57' E 023°38'0 0.0
2015-Aug-25 09:33N 37°57' E 023°38'0 0.0
2015-Aug-25 08:33N 37°57' E 023°38'0 0.0
2015-Aug-25 07:33N 37°57' E 023°38'0 0.0
2015-Aug-25 06:34N 37°57' E 023°38'0 0.0
2015-Aug-25 05:34N 37°57' E 023°38'0 0.0
2015-Aug-25 04:33N 37°57' E 023°38'0 0.0
2015-Aug-25 03:33N 37°57' E 023°38'8 7.5
2015-Aug-25 02:34N 37°50' E 023°41'18 0.6
2015-Aug-23 20:33N 37°32' E 023°45'2020.1
2015-Aug-23 19:33N 37°50' E 023°37'7 6.6
2015-Aug-23 18:34N 37°57' E 023°38'0 0.0
2015-Aug-23 17:34N 37°57' E 023°38'0 0.3
2015-Aug-23 16:34N 37°57' E 023°38'1414.4
2015-Aug-23 15:33N 37°43' E 023°44'12 0.6
2015-Aug-22 20:33N 37°31' E 023°45'2020.0
2015-Aug-22 19:33N 37°50' E 023°37'7 7.2
2015-Aug-22 18:34N 37°57' E 023°38'0 0.0
2015-Aug-22 17:33N 37°57' E 023°38'0 0.0
2015-Aug-22 16:34N 37°57' E 023°38'1514.5
2015-Aug-22 15:33N 37°43' E 023°43'9 0.5
2015-Aug-21 20:32N 37°34' E 023°44'1919.8
2015-Aug-21 19:33N 37°53' E 023°37'4 4.3
2015-Aug-21 18:33N 37°57' E 023°38'0 0.0
2015-Aug-21 17:33N 37°57' E 023°38'0 0.3
2015-Aug-21 16:33N 37°57' E 023°38'1414.4
2015-Aug-21 15:33N 37°43' E 023°43'13410.8
2015-Aug-21 03:05N 35°30' E 024°06'815.3
2015-Aug-21 02:33N 35°34' E 024°14'2120.8
2015-Aug-21 01:33N 35°55' E 024°09'2120.8
2015-Aug-21 00:33N 36°15' E 024°04'2520.5
2015-Aug-20 23:19N 36°40' E 023°58'2420.6
2015-Aug-20 22:09N 37°04' E 023°53'1219.8
2015-Aug-20 21:33N 37°15' E 023°50'1919.6
2015-Aug-20 20:34N 37°34' E 023°44'2019.9
2015-Aug-20 19:34N 37°53' E 023°36'4 3.9
2015-Aug-20 18:33N 37°57' E 023°38'0 0.0
2015-Aug-20 17:33N 37°57' E 023°38'0 0.0
2015-Aug-20 16:33N 37°57' E 023°38'1312.7
2015-Aug-20 15:33N 37°45' E 023°43'2322.7
2015-Aug-20 14:34N 37°22' E 023°48'2323.1
2015-Aug-20 13:33N 36°60' E 023°54'2222.2
2015-Aug-20 12:33N 36°38' E 023°59'2322.3
2015-Aug-20 11:32N 36°15' E 024°04'2122.0
2015-Aug-20 10:33N 35°54' E 024°08'2321.6
2015-Aug-20 09:31N 35°32' E 024°13'6 0.9
2015-Aug-20 02:33N 35°38' E 024°12'2120.8
2015-Aug-20 01:33N 35°58' E 024°07'2220.8
2015-Aug-20 00:29N 36°20' E 024°02'1920.5
2015-Aug-19 23:34N 36°39' E 023°59'2120.7
2015-Aug-19 22:33N 36°60' E 023°54'2019.6
2015-Aug-19 21:34N 37°19' E 023°48'2019.9
2015-Aug-19 20:34N 37°38' E 023°42'1918.6
2015-Aug-19 19:33N 37°56' E 023°37'1 1.3
2015-Aug-19 18:33N 37°57' E 023°38'0 0.0
2015-Aug-19 17:33N 37°57' E 023°38'0 0.0
2015-Aug-19 16:33N 37°57' E 023°38'1313.1
2015-Aug-19 15:33N 37°44' E 023°43'2222.5
2015-Aug-19 14:33N 37°22' E 023°48'2323.2
2015-Aug-19 13:33N 36°59' E 023°54'  

Dump ship's entire track history